createdAt,value
2018-07-14T00:00:21.302Z,101200.00
2018-07-14T00:01:22.076Z,101199.67
2018-07-14T00:02:22.846Z,101199.13
2018-07-14T00:03:23.621Z,101198.84
2018-07-14T00:04:24.390Z,101198.12
2018-07-14T00:05:25.197Z,101197.55
2018-07-14T00:06:25.962Z,101197.36
2018-07-14T00:07:26.734Z,101197.09
2018-07-14T00:08:27.509Z,101196.03
2018-07-14T00:09:28.282Z,101195.14
2018-07-14T00:10:29.083Z,101194.43
2018-07-14T00:11:30.212Z,101194.55
2018-07-14T00:16:27.505Z,101193.23
2018-07-14T00:17:28.275Z,101197.09
2018-07-14T00:18:29.046Z,101196.73
2018-07-14T00:19:29.816Z,101196.84
2018-07-14T00:20:30.587Z,101196.97
2018-07-14T00:21:31.382Z,101196.97
2018-07-14T00:22:32.153Z,101197.13
2018-07-14T00:23:32.924Z,101196.97
2018-07-14T00:24:33.696Z,101196.62
2018-07-14T00:25:34.465Z,101196.45
2018-07-14T00:26:35.263Z,101196.10
2018-07-14T00:27:36.034Z,101196.15
2018-07-14T00:28:36.803Z,101195.61
2018-07-14T00:29:37.572Z,101195.34
2018-07-14T00:30:38.341Z,101195.00
2018-07-14T00:31:39.141Z,101194.88
2018-07-14T00:32:39.912Z,101194.66
2018-07-14T00:33:40.686Z,101194.23
2018-07-14T00:34:41.457Z,101194.23
2018-07-14T00:35:42.232Z,101194.16
2018-07-14T00:36:43.025Z,101194.39
2018-07-14T00:37:43.797Z,101194.58
2018-07-14T00:38:44.567Z,101194.88
2018-07-14T00:39:45.339Z,101194.62
2018-07-14T00:40:46.108Z,101195.23
2018-07-14T00:41:46.904Z,101195.16
2018-07-14T00:42:47.677Z,101195.29
2018-07-14T00:43:48.447Z,101195.39
2018-07-14T00:44:49.221Z,101195.75
2018-07-14T00:45:49.991Z,101195.72
2018-07-14T00:46:50.787Z,101195.53
2018-07-14T00:47:51.558Z,101195.67
2018-07-14T00:48:52.336Z,101195.65
2018-07-14T00:49:53.101Z,101195.93
2018-07-14T00:50:53.878Z,101196.50
2018-07-14T00:51:54.667Z,101196.13
2018-07-14T00:52:55.438Z,101196.84
2018-07-14T00:53:56.212Z,101196.88
2018-07-14T00:54:56.987Z,101196.91
2018-07-14T00:55:57.756Z,101196.69
2018-07-14T00:56:58.557Z,101196.52
2018-07-14T00:57:59.327Z,101196.78
2018-07-14T00:59:00.100Z,101197.05
2018-07-14T01:00:00.867Z,101197.32
2018-07-14T01:01:01.641Z,101196.85
2018-07-14T01:02:02.467Z,101197.37
2018-07-14T01:03:02.210Z,101197.30
2018-07-14T01:04:03.984Z,101197.56
2018-07-14T01:05:04.757Z,101197.61
2018-07-14T01:06:05.525Z,101198.05
2018-07-14T01:07:06.328Z,101197.75
2018-07-14T01:08:07.099Z,101197.95
2018-07-14T01:09:07.872Z,101197.58
2018-07-14T01:10:08.643Z,101197.72
2018-07-14T01:11:09.438Z,101198.12
2018-07-14T01:12:10.213Z,101198.14
2018-07-14T01:13:10.982Z,101197.59
2018-07-14T01:14:11.759Z,101197.57
2018-07-14T01:15:12.530Z,101197.94
2018-07-14T01:16:13.298Z,101198.16
2018-07-14T01:17:14.103Z,101198.42
2018-07-14T01:18:14.875Z,101198.64
2018-07-14T01:19:15.649Z,101199.25
2018-07-14T01:20:16.419Z,101199.10
2018-07-14T01:21:17.188Z,101200.09
2018-07-14T01:22:17.986Z,101200.19
2018-07-14T01:23:18.757Z,101199.86
2018-07-14T01:24:19.526Z,101199.98
2018-07-14T01:25:20.297Z,101200.42
2018-07-14T01:26:21.070Z,101199.93
2018-07-14T01:27:21.863Z,101200.06
2018-07-14T01:28:22.638Z,101199.81
2018-07-14T01:29:23.408Z,101199.39
2018-07-14T01:30:24.176Z,101199.39
2018-07-14T01:31:24.947Z,101199.00
2018-07-14T01:32:25.745Z,101198.48
2018-07-14T01:33:26.529Z,101198.14
2018-07-14T01:34:27.292Z,101197.45
2018-07-14T01:35:28.067Z,101196.94
2018-07-14T01:36:28.834Z,101196.59
2018-07-14T01:37:29.633Z,101195.58
2018-07-14T01:38:30.401Z,101195.16
2018-07-14T01:39:31.174Z,101194.94
2018-07-14T01:40:32.088Z,101194.69
2018-07-14T01:41:31.728Z,101194.09
2018-07-14T01:42:33.528Z,101193.46
2018-07-14T01:43:34.300Z,101193.21
2018-07-14T01:44:34.073Z,101193.31
2018-07-14T01:45:35.908Z,101192.84
2018-07-14T01:46:36.844Z,101192.77
2018-07-14T01:47:36.570Z,101192.30
2018-07-14T01:48:38.341Z,101191.73
2018-07-14T01:49:39.116Z,101191.70
2018-07-14T01:50:39.891Z,101191.84
2018-07-14T01:51:40.665Z,101192.55
2018-07-14T01:52:41.455Z,101192.43
2018-07-14T01:53:42.229Z,101192.53
2018-07-14T01:54:42.999Z,101191.72
2018-07-14T01:55:43.771Z,101191.81
2018-07-14T01:56:44.550Z,101191.17
2018-07-14T01:57:45.346Z,101191.09
2018-07-14T01:58:46.119Z,101191.37
2018-07-14T01:59:46.897Z,101191.52
2018-07-14T02:00:47.662Z,101191.23
2018-07-14T02:01:48.445Z,101191.38
2018-07-14T02:02:49.240Z,101191.57
2018-07-14T02:03:50.016Z,101191.55
2018-07-14T02:04:50.791Z,101191.59
2018-07-14T02:05:51.570Z,101191.19
2018-07-14T02:06:52.725Z,101191.55
2018-07-14T02:13:42.576Z,101210.91
2018-07-14T02:14:43.352Z,101204.86
2018-07-14T02:15:44.119Z,101204.81
2018-07-14T02:16:44.889Z,101204.57
2018-07-14T02:17:45.660Z,101204.66
2018-07-14T02:18:46.461Z,101204.79
2018-07-14T02:19:47.226Z,101204.30
2018-07-14T02:20:47.999Z,101204.22
2018-07-14T02:21:48.776Z,101203.75
2018-07-14T02:22:49.547Z,101203.58
2018-07-14T02:23:50.344Z,101203.16
2018-07-14T02:24:51.116Z,101203.42
2018-07-14T02:25:51.888Z,101203.48
2018-07-14T02:26:52.660Z,101203.35
2018-07-14T02:27:53.434Z,101203.72
2018-07-14T02:28:54.223Z,101203.59
2018-07-14T02:29:54.994Z,101203.70
2018-07-14T02:30:55.767Z,101203.42
2018-07-14T02:31:56.541Z,101203.75
2018-07-14T02:32:57.311Z,101204.41
2018-07-14T02:33:58.108Z,101204.55
2018-07-14T02:34:58.879Z,101204.45
2018-07-14T02:35:59.652Z,101204.78
2018-07-14T02:37:00.427Z,101204.62
2018-07-14T02:38:00.194Z,101204.11
2018-07-14T02:39:01.996Z,101204.59
2018-07-14T02:40:02.766Z,101204.32
2018-07-14T02:41:03.541Z,101204.12
2018-07-14T02:42:04.318Z,101204.14
2018-07-14T02:43:05.084Z,101204.70
2018-07-14T02:44:05.877Z,101204.72
2018-07-14T02:45:06.650Z,101205.03
2018-07-14T02:46:07.422Z,101205.42
2018-07-14T02:47:08.195Z,101205.37
2018-07-14T02:48:08.965Z,101205.42
2018-07-14T02:49:09.768Z,101205.86
2018-07-14T02:50:10.535Z,101205.91
2018-07-14T02:51:11.311Z,101206.61
2018-07-14T02:52:12.085Z,101206.59
2018-07-14T02:53:12.858Z,101207.49
2018-07-14T02:54:13.657Z,101207.22
2018-07-14T02:55:14.424Z,101207.16
2018-07-14T02:56:15.197Z,101207.64
2018-07-14T02:57:15.970Z,101207.44
2018-07-14T02:58:16.747Z,101207.07
2018-07-14T02:59:17.544Z,101206.97
2018-07-14T03:00:18.318Z,101206.86
2018-07-14T03:01:19.091Z,101207.42
2018-07-14T03:02:19.875Z,101207.37
2018-07-14T03:03:19.645Z,101207.00
2018-07-14T03:04:21.453Z,101207.05
2018-07-14T03:05:22.217Z,101206.77
2018-07-14T03:06:22.988Z,101206.84
2018-07-14T03:07:23.767Z,101207.25
2018-07-14T03:08:24.538Z,101206.89
2018-07-14T03:09:25.332Z,101206.22
2018-07-14T03:10:26.102Z,101206.22
2018-07-14T03:11:26.874Z,101205.77
2018-07-14T03:12:27.654Z,101205.73
2018-07-14T03:13:28.420Z,101205.53
2018-07-14T03:14:29.218Z,101205.99
2018-07-14T03:15:29.988Z,101206.82
2018-07-14T03:16:30.759Z,101206.89
2018-07-14T03:17:31.532Z,101207.55
2018-07-14T03:18:32.307Z,101207.52
2018-07-14T03:19:33.250Z,101208.00
2018-07-14T03:20:32.873Z,101208.19
2018-07-14T03:21:34.650Z,101208.80
2018-07-14T03:22:35.419Z,101208.85
2018-07-14T03:23:36.196Z,101209.12
2018-07-14T03:24:36.998Z,101209.68
2018-07-14T03:25:37.767Z,101210.05
2018-07-14T03:26:38.543Z,101210.36
2018-07-14T03:27:39.313Z,101210.16
2018-07-14T03:28:40.090Z,101210.13
2018-07-14T03:29:40.883Z,101210.66
2018-07-14T03:30:41.664Z,101210.80
2018-07-14T03:31:42.429Z,101211.37
2018-07-14T03:32:43.197Z,101211.44
2018-07-14T03:33:43.966Z,101211.72
2018-07-14T03:34:44.771Z,101212.45
2018-07-14T03:35:45.540Z,101213.19
2018-07-14T03:36:46.442Z,101213.13
2018-07-14T03:37:46.089Z,101213.52
2018-07-14T03:38:47.864Z,101213.88
2018-07-14T03:39:48.661Z,101214.27
2018-07-14T03:40:49.436Z,101214.66
2018-07-14T03:41:50.215Z,101214.60
2018-07-14T03:42:50.983Z,101214.58
2018-07-14T03:43:51.758Z,101214.89
2018-07-14T03:44:52.548Z,101215.30
2018-07-14T03:45:53.322Z,101215.28
2018-07-14T03:46:54.091Z,101214.96
2018-07-14T03:47:54.864Z,101214.85
2018-07-14T03:48:55.636Z,101215.00
2018-07-14T03:49:56.431Z,101214.52
2018-07-14T03:50:57.213Z,101214.41
2018-07-14T03:51:57.978Z,101214.17
2018-07-14T03:52:58.756Z,101213.59
2018-07-14T03:53:59.525Z,101213.35
2018-07-14T03:55:00.317Z,101213.23
2018-07-14T03:56:01.098Z,101212.86
2018-07-14T03:57:01.909Z,101212.61
2018-07-14T03:58:01.639Z,101212.95
2018-07-14T03:59:03.413Z,101212.44
2018-07-14T04:00:04.215Z,101212.78
2018-07-14T04:01:04.989Z,101213.22
2018-07-14T04:02:05.760Z,101213.73
2018-07-14T04:03:06.534Z,101214.17
2018-07-14T04:04:07.311Z,101214.69
2018-07-14T04:05:08.472Z,101215.28
2018-07-14T04:17:27.986Z,101237.25
2018-07-14T04:18:28.759Z,101232.04
2018-07-14T04:19:29.530Z,101231.88
2018-07-14T04:20:30.327Z,101231.63
2018-07-14T04:21:31.097Z,101232.40
2018-07-14T04:22:31.869Z,101232.23
2018-07-14T04:23:32.640Z,101232.45
2018-07-14T04:24:33.415Z,101232.03
2018-07-14T04:25:34.209Z,101232.46
2018-07-14T04:26:34.980Z,101232.17
2018-07-14T04:27:35.751Z,101232.52
2018-07-14T04:28:36.526Z,101232.09
2018-07-14T04:29:37.297Z,101231.58
2018-07-14T04:30:38.088Z,101231.41
2018-07-14T04:31:38.862Z,101231.41
2018-07-14T04:32:39.633Z,101231.23
2018-07-14T04:33:40.410Z,101230.97
2018-07-14T04:34:40.179Z,101231.19
2018-07-14T04:35:41.976Z,101231.19
2018-07-14T04:36:42.745Z,101231.44
2018-07-14T04:37:43.516Z,101231.68
2018-07-14T04:38:44.285Z,101231.59
2018-07-14T04:39:45.060Z,101231.42
2018-07-14T04:40:45.855Z,101231.77
2018-07-14T04:41:46.626Z,101231.98
2018-07-14T04:42:47.396Z,101232.23
2018-07-14T04:43:48.168Z,101232.13
2018-07-14T04:44:48.941Z,101232.42
2018-07-14T04:45:49.745Z,101232.92
2018-07-14T04:46:50.512Z,101233.31
2018-07-14T04:47:51.288Z,101234.16
2018-07-14T04:48:52.056Z,101234.16
2018-07-14T04:49:52.835Z,101234.50
2018-07-14T04:50:53.624Z,101235.28
2018-07-14T04:51:54.398Z,101235.55
2018-07-14T04:52:55.169Z,101236.19
2018-07-14T04:53:55.941Z,101236.38
2018-07-14T04:54:56.713Z,101236.84
2018-07-14T04:55:57.508Z,101237.19
2018-07-14T04:56:58.279Z,101237.58
2018-07-14T04:57:59.050Z,101237.91
2018-07-14T04:58:59.826Z,101237.95
2018-07-14T05:00:00.596Z,101238.11
2018-07-14T05:01:01.387Z,101238.02
2018-07-14T05:02:02.162Z,101238.23
2018-07-14T05:03:02.937Z,101237.89
2018-07-14T05:04:03.706Z,101237.97
2018-07-14T05:05:04.481Z,101238.05
2018-07-14T05:06:05.275Z,101238.73
2018-07-14T05:07:06.052Z,101238.56
2018-07-14T05:08:06.821Z,101238.73
2018-07-14T05:09:07.595Z,101239.33
2018-07-14T05:10:08.367Z,101239.49
2018-07-14T05:11:09.163Z,101239.66
2018-07-14T05:12:09.934Z,101239.76
2018-07-14T05:13:10.704Z,101240.87
2018-07-14T05:14:11.484Z,101241.59
2018-07-14T05:15:12.251Z,101241.59
2018-07-14T05:16:13.052Z,101241.88
2018-07-14T05:17:13.822Z,101242.03
2018-07-14T05:18:14.593Z,101242.67
2018-07-14T05:19:15.367Z,101243.39
2018-07-14T05:20:16.141Z,101243.97
2018-07-14T05:21:16.981Z,101244.34
2018-07-14T05:22:16.707Z,101244.54
2018-07-14T05:23:18.484Z,101245.16
2018-07-14T05:24:19.258Z,101245.19
2018-07-14T05:25:20.068Z,101245.64
2018-07-14T05:26:19.827Z,101246.09
2018-07-14T05:27:21.602Z,101246.55
2018-07-14T05:28:21.373Z,101246.69
2018-07-14T05:29:23.143Z,101247.01
2018-07-14T05:30:23.922Z,101246.77
2018-07-14T05:31:24.717Z,101246.70
2018-07-14T05:32:25.491Z,101247.33
2018-07-14T05:33:26.265Z,101247.52
2018-07-14T05:34:27.043Z,101247.11
2018-07-14T05:35:27.812Z,101247.13
2018-07-14T05:36:28.614Z,101246.33
2018-07-14T05:37:29.382Z,101246.59
2018-07-14T05:38:30.154Z,101246.66
2018-07-14T05:39:30.928Z,101246.33
2018-07-14T05:40:31.705Z,101246.20
2018-07-14T05:41:32.495Z,101245.70
2018-07-14T05:42:33.266Z,101245.89
2018-07-14T05:43:34.038Z,101245.88
2018-07-14T05:44:34.820Z,101246.15
2018-07-14T05:45:35.588Z,101246.52
2018-07-14T05:46:36.391Z,101246.24
2018-07-14T05:47:37.155Z,101246.52
2018-07-14T05:48:37.933Z,101246.75
2018-07-14T05:49:38.701Z,101246.70
2018-07-14T05:50:39.477Z,101246.92
2018-07-14T05:51:40.276Z,101247.18
2018-07-14T05:52:41.054Z,101247.56
2018-07-14T05:53:41.821Z,101247.86
2018-07-14T05:54:42.594Z,101247.80
2018-07-14T05:55:43.366Z,101248.99
2018-07-14T05:56:44.170Z,101249.03
2018-07-14T05:57:44.939Z,101249.59
2018-07-14T05:58:45.715Z,101249.94
2018-07-14T05:59:46.490Z,101250.45
2018-07-14T06:00:47.261Z,101250.67
2018-07-14T06:01:48.052Z,101250.81
2018-07-14T06:02:48.828Z,101251.88
2018-07-14T06:03:49.600Z,101252.19
2018-07-14T06:04:50.378Z,101252.56
2018-07-14T06:05:51.148Z,101253.20
2018-07-14T06:06:51.943Z,101253.11
2018-07-14T06:07:53.098Z,101253.61
2018-07-14T06:08:53.275Z,101254.32
2018-07-14T06:13:47.084Z,101257.37
2018-07-14T06:14:48.855Z,101256.83
2018-07-14T06:15:49.627Z,101256.48
2018-07-14T06:16:50.396Z,101256.21
2018-07-14T06:17:51.167Z,101256.68
2018-07-14T06:18:51.962Z,101256.58
2018-07-14T06:19:52.733Z,101256.66
2018-07-14T06:20:53.505Z,101257.13
2018-07-14T06:21:54.280Z,101257.20
2018-07-14T06:22:55.054Z,101257.47
2018-07-14T06:23:55.850Z,101257.72
2018-07-14T06:24:56.629Z,101257.92
2018-07-14T06:25:57.395Z,101258.11
2018-07-14T06:26:58.167Z,101257.70
2018-07-14T06:27:58.939Z,101258.05
2018-07-14T06:28:59.733Z,101257.94
2018-07-14T06:30:00.506Z,101258.41
2018-07-14T06:31:01.283Z,101258.14
2018-07-14T06:32:02.144Z,101258.10
2018-07-14T06:33:01.828Z,101258.23
2018-07-14T06:34:03.632Z,101257.84
2018-07-14T06:35:04.397Z,101257.88
2018-07-14T06:36:05.204Z,101257.81
2018-07-14T06:37:05.947Z,101257.89
2018-07-14T06:38:06.729Z,101258.25
2018-07-14T06:39:07.515Z,101258.58
2018-07-14T06:40:08.291Z,101258.86
2018-07-14T06:41:09.060Z,101259.27
2018-07-14T06:42:09.831Z,101260.00
2018-07-14T06:43:10.610Z,101260.79
2018-07-14T06:44:11.408Z,101261.38
2018-07-14T06:45:12.178Z,101261.53
2018-07-14T06:46:12.950Z,101261.92
2018-07-14T06:47:13.721Z,101262.16
2018-07-14T06:48:14.497Z,101262.62
2018-07-14T06:49:15.290Z,101262.27
2018-07-14T06:50:16.067Z,101263.10
2018-07-14T06:51:16.836Z,101263.50
2018-07-14T06:52:17.608Z,101263.34
2018-07-14T06:53:18.385Z,101263.73
2018-07-14T06:54:19.218Z,101264.33
2018-07-14T06:55:18.952Z,101263.98
2018-07-14T06:56:20.724Z,101264.62
2018-07-14T06:57:21.499Z,101264.94
2018-07-14T06:58:22.273Z,101265.36
2018-07-14T06:59:23.069Z,101265.95
2018-07-14T07:00:23.838Z,101265.73
2018-07-14T07:01:24.610Z,101266.23
2018-07-14T07:02:25.384Z,101266.13
2018-07-14T07:03:26.229Z,101266.28
2018-07-14T07:04:25.957Z,101265.99
2018-07-14T07:05:27.724Z,101266.43
2018-07-14T07:06:28.496Z,101266.58
2018-07-14T07:07:29.270Z,101266.34
2018-07-14T07:08:30.044Z,101265.88
2018-07-14T07:09:30.847Z,101266.59
2018-07-14T07:10:31.612Z,101266.78
2018-07-14T07:11:32.386Z,101266.36
2018-07-14T07:12:33.158Z,101265.93
2018-07-14T07:13:33.939Z,101266.02
2018-07-14T07:14:34.727Z,101265.90
2018-07-14T07:15:35.502Z,101266.06
2018-07-14T07:16:36.284Z,101265.84
2018-07-14T07:17:37.058Z,101265.31
2018-07-14T07:18:37.832Z,101264.86
2018-07-14T07:19:38.631Z,101264.50
2018-07-14T07:20:39.400Z,101264.28
2018-07-14T07:21:40.170Z,101264.00
2018-07-14T07:22:40.942Z,101263.97
2018-07-14T07:23:41.714Z,101264.14
2018-07-14T07:24:42.508Z,101264.44
2018-07-14T07:25:43.283Z,101264.20
2018-07-14T07:26:44.055Z,101263.22
2018-07-14T07:27:44.828Z,101262.58
2018-07-14T07:28:45.653Z,101262.21
2018-07-14T07:29:45.405Z,101261.50
2018-07-14T07:30:47.177Z,101260.66
2018-07-14T07:31:47.951Z,101260.42
2018-07-14T07:32:48.725Z,101260.42
2018-07-14T07:33:49.501Z,101260.28
2018-07-14T07:34:49.296Z,101259.27
2018-07-14T07:35:51.072Z,101259.38
2018-07-14T07:36:51.840Z,101259.12
2018-07-14T07:37:52.618Z,101259.27
2018-07-14T07:38:53.473Z,101259.31
2018-07-14T07:39:53.577Z,101259.02
2018-07-14T07:40:53.270Z,101258.41
2018-07-14T07:41:55.047Z,101258.00
2018-07-14T07:42:55.814Z,101257.64
2018-07-14T07:43:56.593Z,101256.80
2018-07-14T07:44:57.385Z,101256.08
2018-07-14T07:45:58.157Z,101255.79
2018-07-14T07:46:58.934Z,101254.94
2018-07-14T07:47:59.700Z,101254.56
2018-07-14T07:49:00.510Z,101254.82
2018-07-14T07:50:01.294Z,101254.52
2018-07-14T07:51:02.071Z,101254.53
2018-07-14T07:52:02.876Z,101254.67
2018-07-14T07:53:03.616Z,101254.20
2018-07-14T07:54:04.387Z,101253.64
2018-07-14T07:55:05.183Z,101253.34
2018-07-14T07:56:05.955Z,101252.66
2018-07-14T07:57:06.728Z,101252.30
2018-07-14T07:58:07.508Z,101251.53
2018-07-14T07:59:08.404Z,101251.44
2018-07-14T08:00:08.074Z,101251.05
2018-07-14T08:01:09.844Z,101250.79
2018-07-14T08:02:10.619Z,101250.83
2018-07-14T08:03:11.389Z,101250.30
2018-07-14T08:04:12.167Z,101249.63
2018-07-14T08:05:12.966Z,101249.33
2018-07-14T08:06:13.746Z,101248.98
2018-07-14T08:07:14.613Z,101248.41
2018-07-14T08:08:14.684Z,101247.45
2018-07-14T08:09:15.867Z,101247.56
2018-07-14T08:10:15.087Z,101246.61
2018-07-14T08:11:15.276Z,101246.76
2018-07-14T08:13:31.667Z,101238.75
2018-07-14T08:14:32.442Z,101234.81
2018-07-14T08:15:33.238Z,101234.53
2018-07-14T08:16:34.005Z,101233.55
2018-07-14T08:17:34.778Z,101233.44
2018-07-14T08:18:35.548Z,101232.67
2018-07-14T08:19:36.320Z,101231.54
2018-07-14T08:20:37.113Z,101231.42
2018-07-14T08:21:37.885Z,101230.37
2018-07-14T08:22:38.679Z,101230.25
2018-07-14T08:23:39.431Z,101229.84
2018-07-14T08:24:40.208Z,101229.05
2018-07-14T08:25:41.005Z,101228.33
2018-07-14T08:26:41.769Z,101227.74
2018-07-14T08:27:42.542Z,101227.19
2018-07-14T08:28:43.312Z,101226.63
2018-07-14T08:29:44.083Z,101226.38
2018-07-14T08:30:44.881Z,101225.37
2018-07-14T08:31:45.654Z,101225.32
2018-07-14T08:32:46.427Z,101224.05
2018-07-14T08:33:47.198Z,101223.34
2018-07-14T08:34:47.973Z,101222.52
2018-07-14T08:35:48.775Z,101221.45
2018-07-14T08:36:49.546Z,101220.76
2018-07-14T08:37:50.323Z,101219.75
2018-07-14T08:38:51.091Z,101219.06
2018-07-14T08:39:51.863Z,101218.08
2018-07-14T08:40:52.659Z,101216.85
2018-07-14T08:41:53.429Z,101216.32
2018-07-14T08:42:54.205Z,101215.23
2018-07-14T08:43:54.973Z,101214.31
2018-07-14T08:44:55.755Z,101213.40
2018-07-14T08:45:56.549Z,101212.16
2018-07-14T08:46:57.320Z,101211.55
2018-07-14T08:47:58.094Z,101210.59
2018-07-14T08:48:58.863Z,101209.17
2018-07-14T08:49:59.673Z,101207.71
2018-07-14T08:51:00.450Z,101206.50
2018-07-14T08:52:00.223Z,101205.17
2018-07-14T08:53:01.994Z,101203.88
2018-07-14T08:54:02.765Z,101203.25
2018-07-14T08:55:03.541Z,101202.00
2018-07-14T08:56:04.334Z,101200.91
2018-07-14T08:57:05.105Z,101199.86
2018-07-14T08:58:05.891Z,101198.52
2018-07-14T08:59:06.650Z,101197.44
2018-07-14T09:00:07.434Z,101196.16
2018-07-14T09:01:08.338Z,101195.06
2018-07-14T09:02:09.104Z,101194.42
2018-07-14T09:03:09.872Z,101193.75
2018-07-14T09:04:10.643Z,101192.27
2018-07-14T09:05:11.417Z,101190.87
2018-07-14T09:06:12.209Z,101190.41
2018-07-14T09:07:12.986Z,101189.35
2018-07-14T09:08:13.757Z,101188.22
2018-07-14T09:09:14.542Z,101187.61
2018-07-14T09:10:15.307Z,101187.14
2018-07-14T09:11:16.108Z,101186.48
2018-07-14T09:12:16.879Z,101184.90
2018-07-14T09:13:17.658Z,101183.66
2018-07-14T09:14:18.422Z,101182.66
2018-07-14T09:15:19.199Z,101181.64
2018-07-14T09:16:20.043Z,101180.99
2018-07-14T09:17:19.768Z,101180.30
2018-07-14T09:18:21.542Z,101179.23
2018-07-14T09:19:22.314Z,101177.86
2018-07-14T09:20:23.088Z,101177.34
2018-07-14T09:21:23.882Z,101176.80
2018-07-14T09:22:24.655Z,101175.67
2018-07-14T09:23:25.429Z,101174.57
2018-07-14T09:24:26.199Z,101173.85
2018-07-14T09:25:26.985Z,101173.02
2018-07-14T09:26:27.773Z,101172.02
2018-07-14T09:27:28.548Z,101171.25
2018-07-14T09:28:29.316Z,101170.42
2018-07-14T09:29:30.087Z,101169.52
2018-07-14T09:30:30.902Z,101168.42
2018-07-14T09:31:30.659Z,101168.03
2018-07-14T09:32:32.448Z,101167.00
2018-07-14T09:33:33.271Z,101166.05
2018-07-14T09:34:32.973Z,101165.34
2018-07-14T09:35:34.745Z,101164.77
2018-07-14T09:36:35.551Z,101164.44
2018-07-14T09:37:36.319Z,101163.45
2018-07-14T09:38:37.087Z,101163.34
2018-07-14T09:39:37.866Z,101162.24
2018-07-14T09:40:38.634Z,101162.07
2018-07-14T09:41:39.434Z,101161.11
2018-07-14T09:42:40.209Z,101160.50
2018-07-14T09:43:40.978Z,101159.49
2018-07-14T09:44:41.821Z,101158.91
2018-07-14T09:45:41.522Z,101158.01
2018-07-14T09:46:43.320Z,101157.57
2018-07-14T09:47:44.157Z,101156.80
2018-07-14T09:48:43.871Z,101155.98
2018-07-14T09:49:45.636Z,101154.83
2018-07-14T09:50:46.415Z,101154.33
2018-07-14T09:51:47.208Z,101153.34
2018-07-14T09:52:47.983Z,101152.67
2018-07-14T09:53:48.756Z,101152.13
2018-07-14T09:54:49.528Z,101152.02
2018-07-14T09:55:50.309Z,101151.48
2018-07-14T09:56:51.101Z,101150.45
2018-07-14T09:57:51.877Z,101150.12
2018-07-14T09:58:52.648Z,101149.63
2018-07-14T09:59:53.421Z,101149.02
2018-07-14T10:00:54.196Z,101148.65
2018-07-14T10:01:54.994Z,101147.48
2018-07-14T10:02:55.765Z,101146.84
2018-07-14T10:03:56.538Z,101146.13
2018-07-14T10:04:57.308Z,101145.42
2018-07-14T10:05:58.452Z,101144.48
2018-07-14T10:16:50.977Z,101129.20
2018-07-14T10:17:51.774Z,101123.12
2018-07-14T10:18:52.545Z,101123.09
2018-07-14T10:19:53.314Z,101122.45
2018-07-14T10:20:54.088Z,101121.97
2018-07-14T10:21:54.860Z,101121.66
2018-07-14T10:22:55.649Z,101121.25
2018-07-14T10:23:56.424Z,101120.56
2018-07-14T10:24:57.214Z,101120.22
2018-07-14T10:25:58.067Z,101119.61
2018-07-14T10:26:57.746Z,101119.59
2018-07-14T10:27:59.544Z,101118.91
2018-07-14T10:29:00.371Z,101118.08
2018-07-14T10:30:00.100Z,101117.52
2018-07-14T10:31:01.858Z,101117.23
2018-07-14T10:32:02.627Z,101116.92
2018-07-14T10:33:03.425Z,101116.43
2018-07-14T10:34:04.299Z,101116.42
2018-07-14T10:35:03.968Z,101115.59
2018-07-14T10:36:05.741Z,101114.88
2018-07-14T10:37:06.513Z,101114.06
2018-07-14T10:38:07.319Z,101113.20
2018-07-14T10:39:08.087Z,101112.42
2018-07-14T10:40:08.863Z,101111.61
2018-07-14T10:41:09.633Z,101111.06
2018-07-14T10:42:10.494Z,101110.33
2018-07-14T10:43:10.205Z,101109.84
2018-07-14T10:44:11.986Z,101109.27
2018-07-14T10:45:12.751Z,101108.37
2018-07-14T10:46:13.524Z,101107.33
2018-07-14T10:47:14.296Z,101106.97
2018-07-14T10:48:15.095Z,101106.17
2018-07-14T10:49:15.866Z,101105.33
2018-07-14T10:50:16.641Z,101104.27
2018-07-14T10:51:17.410Z,101103.83
2018-07-14T10:52:18.189Z,101102.94
2018-07-14T10:53:18.991Z,101102.48
2018-07-14T10:54:19.766Z,101101.46
2018-07-14T10:55:20.537Z,101100.47
2018-07-14T10:56:21.307Z,101099.44
2018-07-14T10:57:22.082Z,101098.54
2018-07-14T10:58:22.879Z,101097.78
2018-07-14T10:59:23.649Z,101097.09
2018-07-14T11:00:24.422Z,101095.80
2018-07-14T11:01:25.194Z,101095.24
2018-07-14T11:02:25.969Z,101094.27
2018-07-14T11:03:26.765Z,101092.77
2018-07-14T11:04:27.547Z,101091.88
2018-07-14T11:05:27.309Z,101090.86
2018-07-14T11:06:29.081Z,101089.62
2018-07-14T11:07:29.856Z,101088.47
2018-07-14T11:08:30.653Z,101087.38
2018-07-14T11:09:31.427Z,101086.52
2018-07-14T11:10:31.197Z,101085.17
2018-07-14T11:11:32.975Z,101084.19
2018-07-14T11:12:33.742Z,101082.95
2018-07-14T11:13:34.547Z,101081.56
2018-07-14T11:14:35.316Z,101080.70
2018-07-14T11:15:36.091Z,101079.27
2018-07-14T11:16:36.859Z,101078.09
2018-07-14T11:17:37.636Z,101076.64
2018-07-14T11:18:38.433Z,101074.84
2018-07-14T11:19:39.201Z,101073.61
2018-07-14T11:20:39.973Z,101072.16
2018-07-14T11:21:40.751Z,101070.70
2018-07-14T11:22:41.533Z,101069.61
2018-07-14T11:23:42.386Z,101068.09
2018-07-14T11:24:42.103Z,101066.97
2018-07-14T11:25:43.874Z,101065.97
2018-07-14T11:26:44.815Z,101065.16
2018-07-14T11:27:44.511Z,101064.34
2018-07-14T11:28:46.387Z,101063.19
2018-07-14T11:29:46.140Z,101062.27
2018-07-14T11:30:47.916Z,101061.81
2018-07-14T11:31:48.686Z,101060.94
2018-07-14T11:32:49.459Z,101060.06
2018-07-14T11:33:50.340Z,101059.02
2018-07-14T11:34:50.090Z,101058.00
2018-07-14T11:35:51.859Z,101056.77
2018-07-14T11:36:52.632Z,101055.90
2018-07-14T11:37:53.409Z,101055.61
2018-07-14T11:38:54.216Z,101055.22
2018-07-14T11:39:54.991Z,101054.41
2018-07-14T11:40:55.766Z,101053.88
2018-07-14T11:41:56.538Z,101052.38
2018-07-14T11:42:57.325Z,101051.97
2018-07-14T11:43:58.200Z,101050.36
2018-07-14T11:44:58.958Z,101049.33
2018-07-14T11:45:59.729Z,101048.05
2018-07-14T11:47:00.581Z,101047.40
2018-07-14T11:48:00.408Z,101046.61
2018-07-14T11:49:01.113Z,101045.77
2018-07-14T11:50:02.883Z,101045.08
2018-07-14T11:51:03.658Z,101044.78
2018-07-14T11:52:04.432Z,101043.20
2018-07-14T11:53:05.204Z,101042.10
2018-07-14T11:54:06.037Z,101041.11
2018-07-14T11:55:05.772Z,101040.11
2018-07-14T11:56:07.547Z,101038.97
2018-07-14T11:57:08.320Z,101038.03
2018-07-14T11:58:09.097Z,101037.03
2018-07-14T11:59:09.903Z,101035.88
2018-07-14T12:00:10.670Z,101034.66
2018-07-14T12:01:11.438Z,101033.95
2018-07-14T12:02:12.212Z,101033.66
2018-07-14T12:03:12.984Z,101032.61
2018-07-14T12:04:13.782Z,101032.22
2018-07-14T12:05:14.555Z,101031.64
2018-07-14T12:06:15.338Z,101030.58
2018-07-14T12:07:16.171Z,101030.11
2018-07-14T12:08:15.876Z,101029.53
2018-07-14T12:09:17.670Z,101028.77